Atlantic Horizon — 5BEK2 — position and weather

sailwx.info

Track history (hours):
 
Tides and Currents Weather Stations Pressure Air Temp Water Temp Dewpoint Dewpoint Depression Visibility Wind Speed Wind Dir Waves Ship Positions

Atlantic Horizon

Last reported at 2017-Dec-16 21:03 UTC. Time now 2017-Dec-17 10:09 UTC.
Position N 37°43' W 009°17'.

Length 110 m; draft 6 m.

Type: Ship. MMSI: 212772000.

Date/timePositionNaut miles runAvg speedWind from/ knotsBaromVisibWave heightAir tempDewpointWater temp
2017-Dec-16 21:03N 37°43' W 009°17'110.8
2017-Dec-16 21:00N 37°43' W 009°17'511.0
2017-Dec-16 20:30N 37°48' W 009°15'611.3
2017-Dec-16 20:00N 37°54' W 009°13'510.6
2017-Dec-16 19:30N 37°59' W 009°11'510.5
2017-Dec-16 19:00N 38°04' W 009°09'510.6
2017-Dec-16 18:30N 38°09' W 009°07'510.6
2017-Dec-16 18:00N 38°14' W 009°05'510.7
2017-Dec-16 17:30N 38°19' W 009°02'510.9
2017-Dec-16 17:00N 38°24' W 009°00'611.3
2017-Dec-16 16:30N 38°29' W 008°56'4 1.0
2017-Dec-16 12:39N 38°31' W 008°52'0 0.0
2017-Dec-16 04:48N 38°31' W 008°52'0 0.0
2017-Dec-15 09:00N 38°31' W 008°52'0 0.0
2017-Dec-15 07:17N 38°31' W 008°52'0 0.0
2017-Dec-15 04:16N 38°31' W 008°52'0 0.0
2017-Dec-15 03:52N 38°31' W 008°52'0 0.0
2017-Dec-15 02:27N 38°31' W 008°52'0 0.0
2017-Dec-15 00:57N 38°31' W 008°52'0 0.0
2017-Dec-15 00:26N 38°31' W 008°52'26 4.4
2017-Dec-14 18:31N 38°07' W 009°04'510.7
2017-Dec-14 18:00N 38°01' W 009°05'511.0
2017-Dec-14 17:30N 37°56' W 009°06'510.5
2017-Dec-14 17:00N 37°51' W 009°08'510.2
2017-Dec-14 16:30N 37°46' W 009°09'510.1
2017-Dec-14 16:00N 37°41' W 009°10'1110.0
2017-Dec-14 14:54N 37°30' W 009°13'  
2017-Dec-10 17:41N 38°16' W 009°58'2 7.9
2017-Dec-10 17:29N 38°18' W 009°58'4 8.0
2017-Dec-10 17:00N 38°21' W 009°59'4 8.2
2017-Dec-10 16:30N 38°25' W 010°00'4 8.3
2017-Dec-10 16:00N 38°29' W 010°01'4 8.5
2017-Dec-10 15:30N 38°34' W 010°03'4 8.7
2017-Dec-10 15:00N 38°38' W 010°04'5 9.0
2017-Dec-10 14:30N 38°42' W 010°05'4 9.0
2017-Dec-10 14:00N 38°47' W 010°05'4 8.9
2017-Dec-10 13:30N 38°51' W 010°05'5 9.2
2017-Dec-10 13:00N 38°56' W 010°04'5 9.7
2017-Dec-10 12:30N 39°00' W 010°02'5 9.6
2017-Dec-10 12:00N 39°05' W 010°00'5 9.4
2017-Dec-10 11:30N 39°09' W 009°58'5 9.3
2017-Dec-10 11:00N 39°14' W 009°56'5 9.1
2017-Dec-10 10:30N 39°18' W 009°54'115 9.5
2017-Dec-09 22:22N 41°01' W 008°49'410.2
2017-Dec-09 22:00N 41°05' W 008°46'510.2
2017-Dec-09 21:30N 41°09' W 008°43'3 5.3
2017-Dec-09 21:00N 41°12' W 008°41'0 0.0
2017-Dec-09 20:27N 41°12' W 008°41'0 0.0
2017-Dec-09 19:59N 41°12' W 008°41'0 0.0
2017-Dec-09 19:29N 41°12' W 008°41'0 0.0
2017-Dec-09 18:59N 41°12' W 008°41'0 0.0
2017-Dec-09 18:29N 41°12' W 008°41'0 0.0
2017-Dec-09 17:58N 41°12' W 008°41'0 0.0
2017-Dec-09 17:28N 41°12' W 008°41'0 0.0
2017-Dec-09 16:58N 41°12' W 008°41'0 0.0
2017-Dec-09 16:28N 41°12' W 008°41'0 0.0
2017-Dec-09 15:58N 41°12' W 008°41'0 0.0
2017-Dec-09 15:30N 41°12' W 008°41'0 0.0
2017-Dec-09 15:00N 41°12' W 008°41'0 0.0
2017-Dec-09 14:27N 41°12' W 008°41'0 0.0
2017-Dec-09 14:00N 41°12' W 008°41'0 0.0
2017-Dec-09 13:30N 41°12' W 008°41'0 0.0
2017-Dec-09 12:59N 41°12' W 008°41'0 0.0
2017-Dec-09 12:23N 41°12' W 008°41'0 0.0
2017-Dec-09 11:59N 41°12' W 008°41'0 0.0
2017-Dec-09 11:29N 41°12' W 008°41'0 0.0
2017-Dec-09 10:59N 41°12' W 008°41'0 0.0
2017-Dec-09 10:28N 41°12' W 008°41'0 0.0
2017-Dec-09 09:58N 41°12' W 008°41'0 0.0
2017-Dec-09 09:28N 41°12' W 008°41'0 0.0
2017-Dec-09 08:58N 41°12' W 008°41'0 0.0
2017-Dec-09 08:30N 41°12' W 008°41'0 0.0
2017-Dec-09 08:00N 41°12' W 008°41'0 0.0
2017-Dec-09 07:30N 41°12' W 008°41'0 0.0
2017-Dec-09 07:00N 41°12' W 008°41'0 0.0
2017-Dec-09 06:30N 41°12' W 008°41'0 0.0
2017-Dec-09 05:59N 41°12' W 008°41'0 0.0
2017-Dec-09 05:29N 41°12' W 008°41'0 0.0
2017-Dec-09 04:59N 41°12' W 008°41'0 0.0
2017-Dec-09 04:29N 41°12' W 008°41'0 0.0
2017-Dec-09 03:58N 41°12' W 008°41'0 0.0
2017-Dec-09 03:28N 41°12' W 008°41'0 0.0
2017-Dec-09 02:58N 41°12' W 008°41'0 0.0
2017-Dec-09 02:28N 41°12' W 008°41'0 0.0
2017-Dec-09 01:58N 41°12' W 008°41'0 0.0
2017-Dec-09 01:30N 41°12' W 008°41'0 0.0
2017-Dec-09 01:00N 41°12' W 008°41'0 0.0
2017-Dec-09 00:30N 41°12' W 008°41'0 0.0
2017-Dec-09 00:00N 41°12' W 008°41'0 0.0
2017-Dec-08 23:30N 41°12' W 008°41'0 0.0
2017-Dec-08 22:59N 41°12' W 008°41'0 0.0
2017-Dec-08 22:29N 41°12' W 008°41'0 0.0
2017-Dec-08 21:59N 41°12' W 008°41'0 0.0
2017-Dec-08 21:29N 41°12' W 008°41'0 0.0
2017-Dec-08 20:58N 41°12' W 008°41'0 0.0
2017-Dec-08 20:28N 41°12' W 008°41'0 0.0
2017-Dec-08 19:58N 41°12' W 008°41'0 0.0
2017-Dec-08 19:28N 41°12' W 008°41'0 0.0
2017-Dec-08 18:58N 41°12' W 008°41'0 0.0
2017-Dec-08 18:30N 41°12' W 008°41'0 0.0
2017-Dec-08 18:00N 41°12' W 008°41'0 0.0
2017-Dec-08 17:30N 41°12' W 008°41'0 0.0
2017-Dec-08 16:54N 41°12' W 008°41'0 0.0
2017-Dec-08 16:30N 41°12' W 008°41'0 0.0
2017-Dec-08 15:59N 41°12' W 008°41'0 0.0
2017-Dec-08 15:29N 41°12' W 008°41'0 0.0
2017-Dec-08 14:59N 41°12' W 008°41'0 0.0
2017-Dec-08 14:29N 41°12' W 008°41'0 0.0
2017-Dec-08 13:58N 41°12' W 008°41'0 0.0
2017-Dec-08 13:28N 41°12' W 008°41'0 0.0
2017-Dec-08 12:58N 41°12' W 008°41'0 0.0
2017-Dec-08 12:28N 41°12' W 008°41'0 0.0
2017-Dec-08 11:58N 41°12' W 008°41'0 0.0
2017-Dec-08 11:30N 41°12' W 008°41'0 0.0
2017-Dec-08 11:00N 41°12' W 008°41'0 0.0
2017-Dec-08 10:30N 41°12' W 008°41'0 0.0
2017-Dec-08 10:00N 41°12' W 008°41'0 0.0
2017-Dec-08 09:29N 41°12' W 008°41'0 0.0
2017-Dec-08 08:59N 41°12' W 008°41'0 0.0
2017-Dec-08 08:29N 41°12' W 008°41'0 0.0
2017-Dec-08 07:59N 41°12' W 008°41'0 0.0
2017-Dec-08 07:29N 41°12' W 008°41'0 0.0
2017-Dec-08 06:58N 41°12' W 008°41'0 0.0
2017-Dec-08 06:28N 41°12' W 008°41'0 0.0
2017-Dec-08 05:58N 41°12' W 008°41'0 0.0
2017-Dec-08 05:28N 41°12' W 008°41'0 0.0
2017-Dec-08 04:58N 41°12' W 008°41'0 0.0
2017-Dec-08 04:30N 41°12' W 008°41'0 0.0
2017-Dec-08 04:00N 41°12' W 008°41'0 0.0
2017-Dec-08 03:30N 41°12' W 008°41'0 0.0
2017-Dec-08 03:00N 41°12' W 008°41'0 0.0
2017-Dec-08 02:29N 41°12' W 008°41'0 0.0
2017-Dec-08 01:59N 41°12' W 008°41'0 0.0
2017-Dec-08 01:29N 41°12' W 008°41'0 0.0
2017-Dec-08 00:59N 41°12' W 008°41'0 0.0
2017-Dec-08 00:29N 41°12' W 008°41'0 0.0
2017-Dec-07 23:58N 41°12' W 008°41'0 0.0
2017-Dec-07 23:28N 41°12' W 008°41'0 0.0
2017-Dec-07 22:55N 41°12' W 008°41'0 0.0
2017-Dec-07 22:28N 41°12' W 008°41'0 0.0
2017-Dec-07 22:00N 41°12' W 008°41'0 0.0
2017-Dec-07 21:30N 41°12' W 008°41'0 0.0
2017-Dec-07 21:00N 41°12' W 008°41'0 0.0
2017-Dec-07 20:30N 41°12' W 008°41'0 0.0
2017-Dec-07 20:00N 41°12' W 008°41'0 0.0
2017-Dec-07 19:29N 41°12' W 008°41'0 0.0
2017-Dec-07 18:56N 41°12' W 008°41'0 0.0
2017-Dec-07 18:29N 41°12' W 008°41'0 0.0
2017-Dec-07 17:59N 41°12' W 008°41'0 0.0
2017-Dec-07 17:29N 41°12' W 008°41'0 0.0
2017-Dec-07 16:58N 41°12' W 008°41'0 0.0
2017-Dec-07 16:28N 41°12' W 008°41'0 0.0
2017-Dec-07 15:55N 41°12' W 008°41'0 0.0
2017-Dec-07 15:28N 41°12' W 008°41'0 0.0
2017-Dec-07 15:00N 41°12' W 008°41'0 0.0
2017-Dec-07 14:30N 41°12' W 008°41'0 0.0
2017-Dec-07 14:00N 41°12' W 008°41'0 0.0
2017-Dec-07 13:30N 41°12' W 008°41'0 0.0
2017-Dec-07 13:00N 41°12' W 008°41'0 0.0
2017-Dec-07 12:29N 41°12' W 008°41'0 0.0
2017-Dec-07 11:59N 41°12' W 008°41'0 0.0
2017-Dec-07 11:29N 41°12' W 008°41'0 0.0
2017-Dec-07 10:59N 41°12' W 008°41'0 0.0
2017-Dec-07 10:29N 41°12' W 008°41'0 0.0
2017-Dec-07 09:58N 41°12' W 008°41'0 0.0
2017-Dec-07 09:28N 41°12' W 008°41'0 0.0
2017-Dec-07 08:58N 41°12' W 008°41'0 0.0
2017-Dec-07 08:28N 41°12' W 008°41'0 0.0
2017-Dec-07 08:00N 41°12' W 008°41'0 0.2
2017-Dec-07 07:30N 41°11' W 008°41'2 4.7
2017-Dec-07 07:00N 41°10' W 008°43'3 6.6
2017-Dec-07 06:30N 41°07' W 008°45'  
Track history (hours):
 
Tides and Currents Weather Stations Pressure Air Temp Water Temp Dewpoint Dewpoint Depression Visibility Wind Speed Wind Dir Waves Ship Positions

Atlantic Horizon

Last reported at 2017-Dec-16 21:03 UTC. Time now 2017-Dec-17 10:09 UTC.
Position N 37°43' W 009°17'.

Length 110 m; draft 6 m.

Type: Ship. MMSI: 212772000.

Date/timePositionNaut miles runAvg speedWind from/ knotsBaromVisibWave heightAir tempDewpointWater temp
2017-Dec-16 21:03N 37°43' W 009°17'110.8
2017-Dec-16 21:00N 37°43' W 009°17'511.0
2017-Dec-16 20:30N 37°48' W 009°15'611.3
2017-Dec-16 20:00N 37°54' W 009°13'510.6
2017-Dec-16 19:30N 37°59' W 009°11'510.5
2017-Dec-16 19:00N 38°04' W 009°09'510.6
2017-Dec-16 18:30N 38°09' W 009°07'510.6
2017-Dec-16 18:00N 38°14' W 009°05'510.7
2017-Dec-16 17:30N 38°19' W 009°02'510.9
2017-Dec-16 17:00N 38°24' W 009°00'611.3
2017-Dec-16 16:30N 38°29' W 008°56'4 1.0
2017-Dec-16 12:39N 38°31' W 008°52'0 0.0
2017-Dec-16 04:48N 38°31' W 008°52'0 0.0
2017-Dec-15 09:00N 38°31' W 008°52'0 0.0
2017-Dec-15 07:17N 38°31' W 008°52'0 0.0
2017-Dec-15 04:16N 38°31' W 008°52'0 0.0
2017-Dec-15 03:52N 38°31' W 008°52'0 0.0
2017-Dec-15 02:27N 38°31' W 008°52'0 0.0
2017-Dec-15 00:57N 38°31' W 008°52'0 0.0
2017-Dec-15 00:26N 38°31' W 008°52'26 4.4
2017-Dec-14 18:31N 38°07' W 009°04'510.7
2017-Dec-14 18:00N 38°01' W 009°05'511.0
2017-Dec-14 17:30N 37°56' W 009°06'510.5
2017-Dec-14 17:00N 37°51' W 009°08'510.2
2017-Dec-14 16:30N 37°46' W 009°09'510.1
2017-Dec-14 16:00N 37°41' W 009°10'1110.0
2017-Dec-14 14:54N 37°30' W 009°13'  
2017-Dec-10 17:41N 38°16' W 009°58'2 7.9
2017-Dec-10 17:29N 38°18' W 009°58'4 8.0
2017-Dec-10 17:00N 38°21' W 009°59'4 8.2
2017-Dec-10 16:30N 38°25' W 010°00'4 8.3
2017-Dec-10 16:00N 38°29' W 010°01'4 8.5
2017-Dec-10 15:30N 38°34' W 010°03'4 8.7
2017-Dec-10 15:00N 38°38' W 010°04'5 9.0
2017-Dec-10 14:30N 38°42' W 010°05'4 9.0
2017-Dec-10 14:00N 38°47' W 010°05'4 8.9
2017-Dec-10 13:30N 38°51' W 010°05'5 9.2
2017-Dec-10 13:00N 38°56' W 010°04'5 9.7
2017-Dec-10 12:30N 39°00' W 010°02'5 9.6
2017-Dec-10 12:00N 39°05' W 010°00'5 9.4
2017-Dec-10 11:30N 39°09' W 009°58'5 9.3
2017-Dec-10 11:00N 39°14' W 009°56'5 9.1
2017-Dec-10 10:30N 39°18' W 009°54'115 9.5
2017-Dec-09 22:22N 41°01' W 008°49'410.2
2017-Dec-09 22:00N 41°05' W 008°46'510.2
2017-Dec-09 21:30N 41°09' W 008°43'3 5.3
2017-Dec-09 21:00N 41°12' W 008°41'0 0.0
2017-Dec-09 20:27N 41°12' W 008°41'0 0.0
2017-Dec-09 19:59N 41°12' W 008°41'0 0.0
2017-Dec-09 19:29N 41°12' W 008°41'0 0.0
2017-Dec-09 18:59N 41°12' W 008°41'0 0.0
2017-Dec-09 18:29N 41°12' W 008°41'0 0.0
2017-Dec-09 17:58N 41°12' W 008°41'0 0.0
2017-Dec-09 17:28N 41°12' W 008°41'0 0.0
2017-Dec-09 16:58N 41°12' W 008°41'0 0.0
2017-Dec-09 16:28N 41°12' W 008°41'0 0.0
2017-Dec-09 15:58N 41°12' W 008°41'0 0.0
2017-Dec-09 15:30N 41°12' W 008°41'0 0.0
2017-Dec-09 15:00N 41°12' W 008°41'0 0.0
2017-Dec-09 14:27N 41°12' W 008°41'0 0.0
2017-Dec-09 14:00N 41°12' W 008°41'0 0.0
2017-Dec-09 13:30N 41°12' W 008°41'0 0.0
2017-Dec-09 12:59N 41°12' W 008°41'0 0.0
2017-Dec-09 12:23N 41°12' W 008°41'0 0.0
2017-Dec-09 11:59N 41°12' W 008°41'0 0.0
2017-Dec-09 11:29N 41°12' W 008°41'0 0.0
2017-Dec-09 10:59N 41°12' W 008°41'0 0.0
2017-Dec-09 10:28N 41°12' W 008°41'0 0.0
2017-Dec-09 09:58N 41°12' W 008°41'0 0.0
2017-Dec-09 09:28N 41°12' W 008°41'0 0.0
2017-Dec-09 08:58N 41°12' W 008°41'0 0.0
2017-Dec-09 08:30N 41°12' W 008°41'0 0.0
2017-Dec-09 08:00N 41°12' W 008°41'0 0.0
2017-Dec-09 07:30N 41°12' W 008°41'0 0.0
2017-Dec-09 07:00N 41°12' W 008°41'0 0.0
2017-Dec-09 06:30N 41°12' W 008°41'0 0.0
2017-Dec-09 05:59N 41°12' W 008°41'0 0.0
2017-Dec-09 05:29N 41°12' W 008°41'0 0.0
2017-Dec-09 04:59N 41°12' W 008°41'0 0.0
2017-Dec-09 04:29N 41°12' W 008°41'0 0.0
2017-Dec-09 03:58N 41°12' W 008°41'0 0.0
2017-Dec-09 03:28N 41°12' W 008°41'0 0.0
2017-Dec-09 02:58N 41°12' W 008°41'0 0.0
2017-Dec-09 02:28N 41°12' W 008°41'0 0.0
2017-Dec-09 01:58N 41°12' W 008°41'0 0.0
2017-Dec-09 01:30N 41°12' W 008°41'0 0.0
2017-Dec-09 01:00N 41°12' W 008°41'0 0.0
2017-Dec-09 00:30N 41°12' W 008°41'0 0.0
2017-Dec-09 00:00N 41°12' W 008°41'0 0.0
2017-Dec-08 23:30N 41°12' W 008°41'0 0.0
2017-Dec-08 22:59N 41°12' W 008°41'0 0.0
2017-Dec-08 22:29N 41°12' W 008°41'0 0.0
2017-Dec-08 21:59N 41°12' W 008°41'0 0.0
2017-Dec-08 21:29N 41°12' W 008°41'0 0.0
2017-Dec-08 20:58N 41°12' W 008°41'0 0.0
2017-Dec-08 20:28N 41°12' W 008°41'0 0.0
2017-Dec-08 19:58N 41°12' W 008°41'0 0.0
2017-Dec-08 19:28N 41°12' W 008°41'0 0.0
2017-Dec-08 18:58N 41°12' W 008°41'0 0.0
2017-Dec-08 18:30N 41°12' W 008°41'0 0.0
2017-Dec-08 18:00N 41°12' W 008°41'0 0.0
2017-Dec-08 17:30N 41°12' W 008°41'0 0.0
2017-Dec-08 16:54N 41°12' W 008°41'0 0.0
2017-Dec-08 16:30N 41°12' W 008°41'0 0.0
2017-Dec-08 15:59N 41°12' W 008°41'0 0.0
2017-Dec-08 15:29N 41°12' W 008°41'0 0.0
2017-Dec-08 14:59N 41°12' W 008°41'0 0.0
2017-Dec-08 14:29N 41°12' W 008°41'0 0.0
2017-Dec-08 13:58N 41°12' W 008°41'0 0.0
2017-Dec-08 13:28N 41°12' W 008°41'0 0.0
2017-Dec-08 12:58N 41°12' W 008°41'0 0.0
2017-Dec-08 12:28N 41°12' W 008°41'0 0.0
2017-Dec-08 11:58N 41°12' W 008°41'0 0.0
2017-Dec-08 11:30N 41°12' W 008°41'0 0.0
2017-Dec-08 11:00N 41°12' W 008°41'0 0.0
2017-Dec-08 10:30N 41°12' W 008°41'0 0.0
2017-Dec-08 10:00N 41°12' W 008°41'0 0.0
2017-Dec-08 09:29N 41°12' W 008°41'0 0.0
2017-Dec-08 08:59N 41°12' W 008°41'0 0.0
2017-Dec-08 08:29N 41°12' W 008°41'0 0.0
2017-Dec-08 07:59N 41°12' W 008°41'0 0.0
2017-Dec-08 07:29N 41°12' W 008°41'0 0.0
2017-Dec-08 06:58N 41°12' W 008°41'0 0.0
2017-Dec-08 06:28N 41°12' W 008°41'0 0.0
2017-Dec-08 05:58N 41°12' W 008°41'0 0.0
2017-Dec-08 05:28N 41°12' W 008°41'0 0.0
2017-Dec-08 04:58N 41°12' W 008°41'0 0.0
2017-Dec-08 04:30N 41°12' W 008°41'0 0.0
2017-Dec-08 04:00N 41°12' W 008°41'0 0.0
2017-Dec-08 03:30N 41°12' W 008°41'0 0.0
2017-Dec-08 03:00N 41°12' W 008°41'0 0.0
2017-Dec-08 02:29N 41°12' W 008°41'0 0.0
2017-Dec-08 01:59N 41°12' W 008°41'0 0.0
2017-Dec-08 01:29N 41°12' W 008°41'0 0.0
2017-Dec-08 00:59N 41°12' W 008°41'0 0.0
2017-Dec-08 00:29N 41°12' W 008°41'0 0.0
2017-Dec-07 23:58N 41°12' W 008°41'0 0.0
2017-Dec-07 23:28N 41°12' W 008°41'0 0.0
2017-Dec-07 22:55N 41°12' W 008°41'0 0.0
2017-Dec-07 22:28N 41°12' W 008°41'0 0.0
2017-Dec-07 22:00N 41°12' W 008°41'0 0.0
2017-Dec-07 21:30N 41°12' W 008°41'0 0.0
2017-Dec-07 21:00N 41°12' W 008°41'0 0.0
2017-Dec-07 20:30N 41°12' W 008°41'0 0.0
2017-Dec-07 20:00N 41°12' W 008°41'0 0.0
2017-Dec-07 19:29N 41°12' W 008°41'0 0.0
2017-Dec-07 18:56N 41°12' W 008°41'0 0.0
2017-Dec-07 18:29N 41°12' W 008°41'0 0.0
2017-Dec-07 17:59N 41°12' W 008°41'0 0.0
2017-Dec-07 17:29N 41°12' W 008°41'0 0.0
2017-Dec-07 16:58N 41°12' W 008°41'0 0.0
2017-Dec-07 16:28N 41°12' W 008°41'0 0.0
2017-Dec-07 15:55N 41°12' W 008°41'0 0.0
2017-Dec-07 15:28N 41°12' W 008°41'0 0.0
2017-Dec-07 15:00N 41°12' W 008°41'0 0.0
2017-Dec-07 14:30N 41°12' W 008°41'0 0.0
2017-Dec-07 14:00N 41°12' W 008°41'0 0.0
2017-Dec-07 13:30N 41°12' W 008°41'0 0.0
2017-Dec-07 13:00N 41°12' W 008°41'0 0.0
2017-Dec-07 12:29N 41°12' W 008°41'0 0.0
2017-Dec-07 11:59N 41°12' W 008°41'0 0.0
2017-Dec-07 11:29N 41°12' W 008°41'0 0.0
2017-Dec-07 10:59N 41°12' W 008°41'0 0.0
2017-Dec-07 10:29N 41°12' W 008°41'0 0.0
2017-Dec-07 09:58N 41°12' W 008°41'0 0.0
2017-Dec-07 09:28N 41°12' W 008°41'0 0.0
2017-Dec-07 08:58N 41°12' W 008°41'0 0.0
2017-Dec-07 08:28N 41°12' W 008°41'0 0.0
2017-Dec-07 08:00N 41°12' W 008°41'0 0.2
2017-Dec-07 07:30N 41°11' W 008°41'2 4.7
2017-Dec-07 07:00N 41°10' W 008°43'3 6.6
2017-Dec-07 06:30N 41°07' W 008°45'  

Dump ship's entire track history